sensor_id;sensor_type;location;lat;lon;timestamp;P1;durP1;ratioP1;P2;durP2;ratioP2
6497;SDS011;3282;48.358;10.958;2022-10-04T00:00:26;11.07;;;7.43;;
6497;SDS011;3282;48.358;10.958;2022-10-04T00:03:10;12.40;;;7.32;;
6497;SDS011;3282;48.358;10.958;2022-10-04T00:05:46;11.90;;;7.53;;
6497;SDS011;3282;48.358;10.958;2022-10-04T00:08:27;12.07;;;7.60;;
6497;SDS011;3282;48.358;10.958;2022-10-04T00:11:14;10.77;;;7.00;;
6497;SDS011;3282;48.358;10.958;2022-10-04T00:13:54;10.40;;;6.30;;
6497;SDS011;3282;48.358;10.958;2022-10-04T00:16:25;10.70;;;7.30;;
6497;SDS011;3282;48.358;10.958;2022-10-04T00:19:01;10.70;;;7.10;;
6497;SDS011;3282;48.358;10.958;2022-10-04T00:24:22;15.15;;;8.75;;
6497;SDS011;3282;48.358;10.958;2022-10-04T00:30:13;11.77;;;7.10;;
6497;SDS011;3282;48.358;10.958;2022-10-04T00:33:00;12.95;;;7.88;;
6497;SDS011;3282;48.358;10.958;2022-10-04T00:38:15;11.18;;;6.93;;
6497;SDS011;3282;48.358;10.958;2022-10-04T00:43:39;10.00;;;6.70;;
6497;SDS011;3282;48.358;10.958;2022-10-04T00:46:11;12.40;;;8.13;;
6497;SDS011;3282;48.358;10.958;2022-10-04T00:51:21;11.23;;;6.38;;
6497;SDS011;3282;48.358;10.958;2022-10-04T00:54:11;11.13;;;7.35;;
6497;SDS011;3282;48.358;10.958;2022-10-04T01:01:43;11.57;;;7.95;;
6497;SDS011;3282;48.358;10.958;2022-10-04T01:04:26;11.50;;;7.35;;
6497;SDS011;3282;48.358;10.958;2022-10-04T01:06:55;8.93;;;6.57;;
6497;SDS011;3282;48.358;10.958;2022-10-04T01:09:23;11.80;;;7.38;;
6497;SDS011;3282;48.358;10.958;2022-10-04T01:12:08;10.63;;;7.45;;
6497;SDS011;3282;48.358;10.958;2022-10-04T01:17:22;13.20;;;8.13;;
6497;SDS011;3282;48.358;10.958;2022-10-04T01:19:50;12.75;;;7.97;;
6497;SDS011;3282;48.358;10.958;2022-10-04T01:25:00;11.32;;;7.05;;
6497;SDS011;3282;48.358;10.958;2022-10-04T01:29:59;9.25;;;5.97;;
6497;SDS011;3282;48.358;10.958;2022-10-04T01:32:26;11.07;;;7.60;;
6497;SDS011;3282;48.358;10.958;2022-10-04T01:34:54;9.95;;;5.80;;
6497;SDS011;3282;48.358;10.958;2022-10-04T01:37:21;9.98;;;6.00;;
6497;SDS011;3282;48.358;10.958;2022-10-04T01:39:47;9.27;;;5.90;;
6497;SDS011;3282;48.358;10.958;2022-10-04T01:42:15;10.57;;;6.63;;
6497;SDS011;3282;48.358;10.958;2022-10-04T01:45:02;12.50;;;6.35;;
6497;SDS011;3282;48.358;10.958;2022-10-04T01:47:34;8.90;;;6.25;;
6497;SDS011;3282;48.358;10.958;2022-10-04T01:50:42;8.38;;;5.80;;
6497;SDS011;3282;48.358;10.958;2022-10-04T01:55:37;8.15;;;5.90;;
6497;SDS011;3282;48.358;10.958;2022-10-04T01:58:11;8.05;;;5.40;;
6497;SDS011;3282;48.358;10.958;2022-10-04T02:00:48;7.60;;;5.50;;
6497;SDS011;3282;48.358;10.958;2022-10-04T02:03:21;9.40;;;6.05;;
6497;SDS011;3282;48.358;10.958;2022-10-04T02:05:56;8.77;;;5.28;;
6497;SDS011;3282;48.358;10.958;2022-10-04T02:08:26;7.90;;;5.53;;
6497;SDS011;3282;48.358;10.958;2022-10-04T02:10:58;8.15;;;6.20;;
6497;SDS011;3282;48.358;10.958;2022-10-04T02:13:26;10.32;;;6.53;;
6497;SDS011;3282;48.358;10.958;2022-10-04T02:15:59;10.55;;;6.90;;
6497;SDS011;3282;48.358;10.958;2022-10-04T02:18:28;11.07;;;7.28;;
6497;SDS011;3282;48.358;10.958;2022-10-04T02:20:56;11.05;;;6.40;;
6497;SDS011;3282;48.358;10.958;2022-10-04T02:23:24;11.00;;;7.38;;
6497;SDS011;3282;48.358;10.958;2022-10-04T02:25:53;9.88;;;5.90;;
6497;SDS011;3282;48.358;10.958;2022-10-04T02:28:23;8.30;;;5.28;;
6497;SDS011;3282;48.358;10.958;2022-10-04T02:30:50;9.57;;;6.55;;
6497;SDS011;3282;48.358;10.958;2022-10-04T02:33:40;9.68;;;6.43;;
6497;SDS011;3282;48.358;10.958;2022-10-04T02:36:08;11.35;;;6.38;;
6497;SDS011;3282;48.358;10.958;2022-10-04T02:38:37;9.75;;;6.68;;
6497;SDS011;3282;48.358;10.958;2022-10-04T02:41:29;9.82;;;6.63;;
6497;SDS011;3282;48.358;10.958;2022-10-04T02:44:07;9.65;;;5.90;;
6497;SDS011;3282;48.358;10.958;2022-10-04T02:47:05;9.52;;;6.32;;
6497;SDS011;3282;48.358;10.958;2022-10-04T02:49:35;9.02;;;5.75;;
6497;SDS011;3282;48.358;10.958;2022-10-04T02:52:07;10.90;;;6.18;;
6497;SDS011;3282;48.358;10.958;2022-10-04T02:54:45;10.25;;;6.35;;
6497;SDS011;3282;48.358;10.958;2022-10-04T02:57:18;8.52;;;5.70;;
6497;SDS011;3282;48.358;10.958;2022-10-04T02:59:47;8.23;;;5.75;;
6497;SDS011;3282;48.358;10.958;2022-10-04T03:02:21;8.23;;;5.80;;
6497;SDS011;3282;48.358;10.958;2022-10-04T03:04:58;8.60;;;5.90;;
6497;SDS011;3282;48.358;10.958;2022-10-04T03:07:30;10.60;;;6.40;;
6497;SDS011;3282;48.358;10.958;2022-10-04T03:09:58;8.25;;;5.75;;
6497;SDS011;3282;48.358;10.958;2022-10-04T03:12:27;10.45;;;7.13;;
6497;SDS011;3282;48.358;10.958;2022-10-04T03:14:53;8.80;;;5.60;;
6497;SDS011;3282;48.358;10.958;2022-10-04T03:17:20;9.77;;;6.25;;
6497;SDS011;3282;48.358;10.958;2022-10-04T03:19:47;10.27;;;5.72;;
6497;SDS011;3282;48.358;10.958;2022-10-04T03:22:15;8.35;;;5.55;;
6497;SDS011;3282;48.358;10.958;2022-10-04T03:24:49;11.20;;;7.10;;
6497;SDS011;3282;48.358;10.958;2022-10-04T03:27:20;9.68;;;5.28;;
6497;SDS011;3282;48.358;10.958;2022-10-04T03:29:50;10.50;;;5.45;;
6497;SDS011;3282;48.358;10.958;2022-10-04T03:32:24;8.95;;;6.03;;
6497;SDS011;3282;48.358;10.958;2022-10-04T03:34:59;8.15;;;5.50;;
6497;SDS011;3282;48.358;10.958;2022-10-04T03:37:27;8.40;;;5.03;;
6497;SDS011;3282;48.358;10.958;2022-10-04T03:39:56;9.05;;;5.78;;
6497;SDS011;3282;48.358;10.958;2022-10-04T03:42:30;12.18;;;5.93;;
6497;SDS011;3282;48.358;10.958;2022-10-04T03:45:10;7.68;;;5.43;;
6497;SDS011;3282;48.358;10.958;2022-10-04T03:47:42;8.52;;;5.68;;
6497;SDS011;3282;48.358;10.958;2022-10-04T03:50:12;9.27;;;6.20;;
6497;SDS011;3282;48.358;10.958;2022-10-04T03:53:02;8.93;;;5.55;;
6497;SDS011;3282;48.358;10.958;2022-10-04T03:55:36;8.07;;;4.82;;
6497;SDS011;3282;48.358;10.958;2022-10-04T03:58:05;8.43;;;5.25;;
6497;SDS011;3282;48.358;10.958;2022-10-04T04:00:40;8.95;;;5.50;;
6497;SDS011;3282;48.358;10.958;2022-10-04T04:03:14;9.25;;;6.40;;
6497;SDS011;3282;48.358;10.958;2022-10-04T04:05:47;7.57;;;5.38;;
6497;SDS011;3282;48.358;10.958;2022-10-04T04:08:26;8.38;;;5.75;;
6497;SDS011;3282;48.358;10.958;2022-10-04T04:10:57;8.38;;;5.40;;
6497;SDS011;3282;48.358;10.958;2022-10-04T04:13:40;7.93;;;5.95;;
6497;SDS011;3282;48.358;10.958;2022-10-04T04:16:19;7.20;;;5.00;;
6497;SDS011;3282;48.358;10.958;2022-10-04T04:18:52;8.27;;;5.80;;
6497;SDS011;3282;48.358;10.958;2022-10-04T04:21:20;8.68;;;5.40;;
6497;SDS011;3282;48.358;10.958;2022-10-04T04:23:55;9.82;;;5.60;;
6497;SDS011;3282;48.358;10.958;2022-10-04T04:26:36;8.93;;;5.75;;
6497;SDS011;3282;48.358;10.958;2022-10-04T04:29:19;6.93;;;4.88;;
6497;SDS011;3282;48.358;10.958;2022-10-04T04:31:58;8.18;;;5.72;;
6497;SDS011;3282;48.358;10.958;2022-10-04T04:34:31;7.63;;;5.03;;
6497;SDS011;3282;48.358;10.958;2022-10-04T04:37:03;8.75;;;6.00;;
6497;SDS011;3282;48.358;10.958;2022-10-04T04:39:30;10.93;;;6.28;;
6497;SDS011;3282;48.358;10.958;2022-10-04T04:42:15;8.55;;;5.95;;
6497;SDS011;3282;48.358;10.958;2022-10-04T04:47:29;10.13;;;6.13;;
6497;SDS011;3282;48.358;10.958;2022-10-04T04:50:03;7.88;;;5.10;;
6497;SDS011;3282;48.358;10.958;2022-10-04T04:52:32;10.57;;;7.00;;
6497;SDS011;3282;48.358;10.958;2022-10-04T04:55:01;10.85;;;5.55;;
6497;SDS011;3282;48.358;10.958;2022-10-04T04:57:29;8.27;;;5.53;;
6497;SDS011;3282;48.358;10.958;2022-10-04T04:59:58;8.32;;;5.50;;
6497;SDS011;3282;48.358;10.958;2022-10-04T05:05:16;10.38;;;6.35;;
6497;SDS011;3282;48.358;10.958;2022-10-04T05:07:42;8.55;;;5.15;;
6497;SDS011;3282;48.358;10.958;2022-10-04T05:12:59;10.90;;;5.13;;
6497;SDS011;3282;48.358;10.958;2022-10-04T05:15:27;8.95;;;5.75;;
6497;SDS011;3282;48.358;10.958;2022-10-04T05:17:59;10.85;;;6.82;;
6497;SDS011;3282;48.358;10.958;2022-10-04T05:20:27;11.75;;;7.32;;
6497;SDS011;3282;48.358;10.958;2022-10-04T05:22:56;14.00;;;8.30;;
6497;SDS011;3282;48.358;10.958;2022-10-04T05:25:28;11.93;;;8.43;;
6497;SDS011;3282;48.358;10.958;2022-10-04T05:27:58;14.98;;;7.88;;
6497;SDS011;3282;48.358;10.958;2022-10-04T05:33:48;15.00;;;8.00;;
6497;SDS011;3282;48.358;10.958;2022-10-04T05:39:26;11.80;;;7.97;;
6497;SDS011;3282;48.358;10.958;2022-10-04T05:42:02;12.82;;;7.43;;
6497;SDS011;3282;48.358;10.958;2022-10-04T05:47:17;9.43;;;5.88;;
6497;SDS011;3282;48.358;10.958;2022-10-04T05:49:50;12.15;;;6.70;;
6497;SDS011;3282;48.358;10.958;2022-10-04T05:52:26;13.85;;;5.70;;
6497;SDS011;3282;48.358;10.958;2022-10-04T05:57:39;8.98;;;5.43;;
6497;SDS011;3282;48.358;10.958;2022-10-04T06:00:31;8.85;;;5.97;;
6497;SDS011;3282;48.358;10.958;2022-10-04T06:06:11;11.23;;;6.28;;
6497;SDS011;3282;48.358;10.958;2022-10-04T06:08:50;8.98;;;5.82;;
6497;SDS011;3282;48.358;10.958;2022-10-04T06:17:33;8.32;;;5.47;;
6497;SDS011;3282;48.358;10.958;2022-10-04T06:23:13;10.00;;;6.10;;
6497;SDS011;3282;48.358;10.958;2022-10-04T06:26:04;9.07;;;6.75;;
6497;SDS011;3282;48.358;10.958;2022-10-04T06:28:38;9.63;;;6.90;;
6497;SDS011;3282;48.358;10.958;2022-10-04T06:39:16;12.35;;;7.75;;
6497;SDS011;3282;48.358;10.958;2022-10-04T06:47:32;11.52;;;6.38;;
6497;SDS011;3282;48.358;10.958;2022-10-04T06:50:09;13.98;;;6.95;;
6497;SDS011;3282;48.358;10.958;2022-10-04T06:55:53;13.68;;;8.80;;
6497;SDS011;3282;48.358;10.958;2022-10-04T06:58:44;17.27;;;10.55;;
6497;SDS011;3282;48.358;10.958;2022-10-04T07:09:52;14.05;;;7.50;;
6497;SDS011;3282;48.358;10.958;2022-10-04T07:12:42;12.90;;;7.90;;
6497;SDS011;3282;48.358;10.958;2022-10-04T07:15:25;12.25;;;8.10;;
6497;SDS011;3282;48.358;10.958;2022-10-04T07:17:57;13.23;;;7.70;;
6497;SDS011;3282;48.358;10.958;2022-10-04T07:20:29;15.75;;;8.50;;
6497;SDS011;3282;48.358;10.958;2022-10-04T07:23:07;12.57;;;7.82;;
6497;SDS011;3282;48.358;10.958;2022-10-04T07:25:44;14.18;;;8.63;;
6497;SDS011;3282;48.358;10.958;2022-10-04T07:28:14;12.27;;;7.55;;
6497;SDS011;3282;48.358;10.958;2022-10-04T07:31:09;12.82;;;7.30;;
6497;SDS011;3282;48.358;10.958;2022-10-04T07:33:47;13.50;;;8.15;;
6497;SDS011;3282;48.358;10.958;2022-10-04T07:36:59;11.38;;;7.32;;
6497;SDS011;3282;48.358;10.958;2022-10-04T07:39:09;10.23;;;7.22;;
6497;SDS011;3282;48.358;10.958;2022-10-04T07:41:52;11.77;;;7.40;;
6497;SDS011;3282;48.358;10.958;2022-10-04T07:49:43;13.90;;;7.43;;
6497;SDS011;3282;48.358;10.958;2022-10-04T08:00:23;13.65;;;6.63;;
6497;SDS011;3282;48.358;10.958;2022-10-04T08:06:04;10.98;;;6.70;;
6497;SDS011;3282;48.358;10.958;2022-10-04T08:08:59;12.70;;;6.70;;
6497;SDS011;3282;48.358;10.958;2022-10-04T08:12:03;12.70;;;7.05;;
6497;SDS011;3282;48.358;10.958;2022-10-04T08:14:53;12.98;;;7.57;;
6497;SDS011;3282;48.358;10.958;2022-10-04T08:17:56;14.05;;;7.72;;
6497;SDS011;3282;48.358;10.958;2022-10-04T08:20:39;12.00;;;7.13;;
6497;SDS011;3282;48.358;10.958;2022-10-04T08:26:06;13.32;;;7.38;;
6497;SDS011;3282;48.358;10.958;2022-10-04T08:28:59;11.40;;;7.70;;
6497;SDS011;3282;48.358;10.958;2022-10-04T08:37:34;12.25;;;7.22;;
6497;SDS011;3282;48.358;10.958;2022-10-04T08:43:18;13.90;;;7.35;;
6497;SDS011;3282;48.358;10.958;2022-10-04T08:51:24;12.88;;;7.30;;
6497;SDS011;3282;48.358;10.958;2022-10-04T09:14:43;10.73;;;4.88;;
6497;SDS011;3282;48.358;10.958;2022-10-04T09:20:23;12.00;;;5.70;;
6497;SDS011;3282;48.358;10.958;2022-10-04T09:28:52;11.93;;;6.53;;
6497;SDS011;3282;48.358;10.958;2022-10-04T09:31:43;12.73;;;6.25;;
6497;SDS011;3282;48.358;10.958;2022-10-04T09:37:20;11.48;;;6.03;;
6497;SDS011;3282;48.358;10.958;2022-10-04T09:48:14;12.77;;;5.50;;
6497;SDS011;3282;48.358;10.958;2022-10-04T09:53:48;11.93;;;4.65;;
6497;SDS011;3282;48.358;10.958;2022-10-04T10:19:47;9.10;;;4.68;;
6497;SDS011;3282;48.358;10.958;2022-10-04T10:32:46;9.88;;;4.15;;
6497;SDS011;3282;48.358;10.958;2022-10-04T10:50:06;13.48;;;4.88;;
6497;SDS011;3282;48.358;10.958;2022-10-04T11:07:41;10.55;;;4.55;;
6497;SDS011;3282;48.358;10.958;2022-10-04T11:12:54;9.63;;;4.63;;
6497;SDS011;3282;48.358;10.958;2022-10-04T11:16:05;7.82;;;4.55;;
6497;SDS011;3282;48.358;10.958;2022-10-04T11:32:37;9.38;;;4.30;;
6497;SDS011;3282;48.358;10.958;2022-10-04T11:37:51;8.18;;;4.35;;
6497;SDS011;3282;48.358;10.958;2022-10-04T11:57:29;7.13;;;3.72;;
6497;SDS011;3282;48.358;10.958;2022-10-04T12:02:52;10.70;;;4.00;;
6497;SDS011;3282;48.358;10.958;2022-10-04T12:10:36;9.27;;;4.45;;
6497;SDS011;3282;48.358;10.958;2022-10-04T12:13:23;8.15;;;4.47;;
6497;SDS011;3282;48.358;10.958;2022-10-04T12:16:10;9.52;;;4.07;;
6497;SDS011;3282;48.358;10.958;2022-10-04T12:24:49;7.80;;;4.53;;
6497;SDS011;3282;48.358;10.958;2022-10-04T12:27:39;8.95;;;4.38;;
6497;SDS011;3282;48.358;10.958;2022-10-04T12:30:52;9.60;;;4.50;;
6497;SDS011;3282;48.358;10.958;2022-10-04T12:33:23;7.60;;;3.97;;
6497;SDS011;3282;48.358;10.958;2022-10-04T12:36:12;8.88;;;4.28;;
6497;SDS011;3282;48.358;10.958;2022-10-04T12:50:57;7.57;;;3.50;;
6497;SDS011;3282;48.358;10.958;2022-10-04T12:58:45;9.38;;;3.78;;
6497;SDS011;3282;48.358;10.958;2022-10-04T13:04:25;8.60;;;3.47;;
6497;SDS011;3282;48.358;10.958;2022-10-04T13:16:03;7.03;;;3.40;;
6497;SDS011;3282;48.358;10.958;2022-10-04T13:21:55;5.93;;;2.95;;
6497;SDS011;3282;48.358;10.958;2022-10-04T13:27:26;12.02;;;3.50;;
6497;SDS011;3282;48.358;10.958;2022-10-04T13:30:14;8.45;;;3.83;;
6497;SDS011;3282;48.358;10.958;2022-10-04T13:32:57;8.05;;;3.95;;
6497;SDS011;3282;48.358;10.958;2022-10-04T13:49:19;6.80;;;3.50;;
6497;SDS011;3282;48.358;10.958;2022-10-04T14:06:40;8.50;;;4.10;;
6497;SDS011;3282;48.358;10.958;2022-10-04T14:26:18;7.75;;;3.00;;
6497;SDS011;3282;48.358;10.958;2022-10-04T14:29:20;7.78;;;3.10;;
6497;SDS011;3282;48.358;10.958;2022-10-04T14:45:55;6.97;;;3.10;;
6497;SDS011;3282;48.358;10.958;2022-10-04T14:54:25;6.30;;;3.05;;
6497;SDS011;3282;48.358;10.958;2022-10-04T14:57:08;6.38;;;3.05;;
6497;SDS011;3282;48.358;10.958;2022-10-04T15:10:48;8.75;;;3.13;;
6497;SDS011;3282;48.358;10.958;2022-10-04T15:16:35;7.13;;;3.20;;
6497;SDS011;3282;48.358;10.958;2022-10-04T15:30:07;5.53;;;2.67;;
6497;SDS011;3282;48.358;10.958;2022-10-04T15:32:57;5.28;;;2.90;;
6497;SDS011;3282;48.358;10.958;2022-10-04T15:38:51;5.35;;;2.97;;
6497;SDS011;3282;48.358;10.958;2022-10-04T15:41:29;7.97;;;3.00;;
6497;SDS011;3282;48.358;10.958;2022-10-04T15:46:54;6.88;;;2.97;;
6497;SDS011;3282;48.358;10.958;2022-10-04T16:00:14;5.22;;;3.00;;
6497;SDS011;3282;48.358;10.958;2022-10-04T16:05:37;6.57;;;3.08;;
6497;SDS011;3282;48.358;10.958;2022-10-04T16:21:52;7.35;;;3.42;;
6497;SDS011;3282;48.358;10.958;2022-10-04T16:24:37;8.50;;;3.10;;
6497;SDS011;3282;48.358;10.958;2022-10-04T16:27:14;7.53;;;3.20;;
6497;SDS011;3282;48.358;10.958;2022-10-04T16:29:55;6.20;;;3.20;;
6497;SDS011;3282;48.358;10.958;2022-10-04T16:35:32;4.63;;;3.15;;
6497;SDS011;3282;48.358;10.958;2022-10-04T16:48:33;6.53;;;3.60;;
6497;SDS011;3282;48.358;10.958;2022-10-04T16:53:52;8.55;;;4.07;;
6497;SDS011;3282;48.358;10.958;2022-10-04T16:56:31;6.68;;;3.90;;
6497;SDS011;3282;48.358;10.958;2022-10-04T17:15:56;13.25;;;4.80;;
6497;SDS011;3282;48.358;10.958;2022-10-04T17:18:42;7.70;;;4.53;;
6497;SDS011;3282;48.358;10.958;2022-10-04T17:24:12;7.97;;;5.10;;
6497;SDS011;3282;48.358;10.958;2022-10-04T17:29:35;10.35;;;5.20;;
6497;SDS011;3282;48.358;10.958;2022-10-04T17:35:15;8.20;;;4.97;;
6497;SDS011;3282;48.358;10.958;2022-10-04T17:38:08;11.90;;;7.05;;
6497;SDS011;3282;48.358;10.958;2022-10-04T17:43:33;16.73;;;10.63;;
6497;SDS011;3282;48.358;10.958;2022-10-04T17:46:19;23.08;;;12.52;;
6497;SDS011;3282;48.358;10.958;2022-10-04T17:48:55;23.02;;;12.90;;
6497;SDS011;3282;48.358;10.958;2022-10-04T17:51:46;25.25;;;14.50;;
6497;SDS011;3282;48.358;10.958;2022-10-04T17:57:26;30.67;;;19.30;;
6497;SDS011;3282;48.358;10.958;2022-10-04T18:00:07;29.67;;;18.30;;
6497;SDS011;3282;48.358;10.958;2022-10-04T18:05:27;27.38;;;16.27;;
6497;SDS011;3282;48.358;10.958;2022-10-04T18:07:59;29.52;;;16.95;;
6497;SDS011;3282;48.358;10.958;2022-10-04T18:13:14;29.40;;;18.33;;
6497;SDS011;3282;48.358;10.958;2022-10-04T18:18:23;29.33;;;18.20;;
6497;SDS011;3282;48.358;10.958;2022-10-04T18:23:31;21.65;;;12.68;;
6497;SDS011;3282;48.358;10.958;2022-10-04T18:28:34;20.13;;;12.90;;
6497;SDS011;3282;48.358;10.958;2022-10-04T18:31:24;19.48;;;12.20;;
6497;SDS011;3282;48.358;10.958;2022-10-04T18:33:51;22.30;;;14.23;;
6497;SDS011;3282;48.358;10.958;2022-10-04T18:36:20;23.45;;;14.63;;
6497;SDS011;3282;48.358;10.958;2022-10-04T18:39:00;20.20;;;13.32;;
6497;SDS011;3282;48.358;10.958;2022-10-04T18:41:29;22.50;;;12.85;;
6497;SDS011;3282;48.358;10.958;2022-10-04T18:44:15;17.55;;;12.02;;
6497;SDS011;3282;48.358;10.958;2022-10-04T18:46:45;18.92;;;12.43;;
6497;SDS011;3282;48.358;10.958;2022-10-04T18:49:18;20.52;;;13.00;;
6497;SDS011;3282;48.358;10.958;2022-10-04T18:57:32;60.55;;;36.78;;
6497;SDS011;3282;48.358;10.958;2022-10-04T19:00:25;31.58;;;20.65;;
6497;SDS011;3282;48.358;10.958;2022-10-04T19:11:48;45.78;;;31.52;;
6497;SDS011;3282;48.358;10.958;2022-10-04T19:22:48;27.02;;;18.38;;
6497;SDS011;3282;48.358;10.958;2022-10-04T19:25:28;28.55;;;19.08;;
6497;SDS011;3282;48.358;10.958;2022-10-04T19:28:37;25.00;;;16.88;;
6497;SDS011;3282;48.358;10.958;2022-10-04T19:34:03;23.30;;;16.13;;
6497;SDS011;3282;48.358;10.958;2022-10-04T19:36:49;22.67;;;15.80;;
6497;SDS011;3282;48.358;10.958;2022-10-04T19:48:00;18.25;;;12.82;;
6497;SDS011;3282;48.358;10.958;2022-10-04T19:50:34;19.55;;;13.00;;
6497;SDS011;3282;48.358;10.958;2022-10-04T19:53:06;16.77;;;11.85;;
6497;SDS011;3282;48.358;10.958;2022-10-04T19:55:52;18.52;;;11.57;;
6497;SDS011;3282;48.358;10.958;2022-10-04T19:58:35;18.60;;;12.70;;
6497;SDS011;3282;48.358;10.958;2022-10-04T20:01:10;18.48;;;12.70;;
6497;SDS011;3282;48.358;10.958;2022-10-04T20:03:38;17.55;;;12.30;;
6497;SDS011;3282;48.358;10.958;2022-10-04T20:06:05;19.55;;;12.27;;
6497;SDS011;3282;48.358;10.958;2022-10-04T20:19:19;15.85;;;11.70;;
6497;SDS011;3282;48.358;10.958;2022-10-04T20:21:55;18.63;;;12.77;;
6497;SDS011;3282;48.358;10.958;2022-10-04T20:24:52;19.55;;;12.32;;
6497;SDS011;3282;48.358;10.958;2022-10-04T20:30:03;18.13;;;13.18;;
6497;SDS011;3282;48.358;10.958;2022-10-04T20:35:04;17.90;;;12.00;;
6497;SDS011;3282;48.358;10.958;2022-10-04T20:40:41;20.63;;;13.25;;
6497;SDS011;3282;48.358;10.958;2022-10-04T20:45:41;19.50;;;12.90;;
6497;SDS011;3282;48.358;10.958;2022-10-04T20:48:11;21.10;;;13.45;;
6497;SDS011;3282;48.358;10.958;2022-10-04T20:50:43;18.63;;;12.73;;
6497;SDS011;3282;48.358;10.958;2022-10-04T20:53:27;20.27;;;13.23;;
6497;SDS011;3282;48.358;10.958;2022-10-04T20:58:34;16.77;;;11.45;;
6497;SDS011;3282;48.358;10.958;2022-10-04T21:01:02;19.05;;;12.93;;
6497;SDS011;3282;48.358;10.958;2022-10-04T21:03:42;19.58;;;13.50;;
6497;SDS011;3282;48.358;10.958;2022-10-04T21:06:09;20.23;;;13.57;;
6497;SDS011;3282;48.358;10.958;2022-10-04T21:08:37;22.45;;;15.68;;
6497;SDS011;3282;48.358;10.958;2022-10-04T21:11:06;19.63;;;14.90;;
6497;SDS011;3282;48.358;10.958;2022-10-04T21:13:56;18.35;;;13.43;;
6497;SDS011;3282;48.358;10.958;2022-10-04T21:19:27;17.42;;;11.95;;
6497;SDS011;3282;48.358;10.958;2022-10-04T21:27:10;15.15;;;11.45;;
6497;SDS011;3282;48.358;10.958;2022-10-04T21:29:49;15.55;;;11.25;;
6497;SDS011;3282;48.358;10.958;2022-10-04T21:32:19;16.98;;;10.98;;
6497;SDS011;3282;48.358;10.958;2022-10-04T21:34:46;16.13;;;11.25;;
6497;SDS011;3282;48.358;10.958;2022-10-04T21:37:19;16.45;;;10.90;;
6497;SDS011;3282;48.358;10.958;2022-10-04T21:39:46;17.45;;;10.43;;
6497;SDS011;3282;48.358;10.958;2022-10-04T21:42:12;20.98;;;11.98;;
6497;SDS011;3282;48.358;10.958;2022-10-04T21:44:39;16.80;;;10.90;;
6497;SDS011;3282;48.358;10.958;2022-10-04T21:47:06;16.25;;;10.57;;
6497;SDS011;3282;48.358;10.958;2022-10-04T21:49:32;13.95;;;9.00;;
6497;SDS011;3282;48.358;10.958;2022-10-04T21:51:59;16.05;;;9.65;;
6497;SDS011;3282;48.358;10.958;2022-10-04T21:54:25;15.30;;;9.73;;
6497;SDS011;3282;48.358;10.958;2022-10-04T21:56:52;13.63;;;9.65;;
6497;SDS011;3282;48.358;10.958;2022-10-04T21:59:19;13.77;;;9.32;;
6497;SDS011;3282;48.358;10.958;2022-10-04T22:01:46;12.68;;;8.70;;
6497;SDS011;3282;48.358;10.958;2022-10-04T22:04:13;15.43;;;9.93;;
6497;SDS011;3282;48.358;10.958;2022-10-04T22:06:39;13.68;;;8.85;;
6497;SDS011;3282;48.358;10.958;2022-10-04T22:09:06;13.50;;;9.30;;
6497;SDS011;3282;48.358;10.958;2022-10-04T22:11:33;14.50;;;9.75;;
6497;SDS011;3282;48.358;10.958;2022-10-04T22:14:00;13.30;;;9.15;;
6497;SDS011;3282;48.358;10.958;2022-10-04T22:16:26;15.70;;;9.48;;
6497;SDS011;3282;48.358;10.958;2022-10-04T22:18:53;14.63;;;9.07;;
6497;SDS011;3282;48.358;10.958;2022-10-04T22:21:20;13.57;;;8.85;;
6497;SDS011;3282;48.358;10.958;2022-10-04T22:23:46;14.18;;;9.15;;
6497;SDS011;3282;48.358;10.958;2022-10-04T22:26:14;13.00;;;8.82;;
6497;SDS011;3282;48.358;10.958;2022-10-04T22:28:47;14.52;;;9.05;;
6497;SDS011;3282;48.358;10.958;2022-10-04T22:31:24;14.80;;;8.93;;
6497;SDS011;3282;48.358;10.958;2022-10-04T22:33:53;12.25;;;8.98;;
6497;SDS011;3282;48.358;10.958;2022-10-04T22:36:25;13.88;;;8.40;;
6497;SDS011;3282;48.358;10.958;2022-10-04T22:39:01;13.55;;;8.98;;
6497;SDS011;3282;48.358;10.958;2022-10-04T22:41:39;13.07;;;9.40;;
6497;SDS011;3282;48.358;10.958;2022-10-04T22:46:49;13.27;;;8.52;;
6497;SDS011;3282;48.358;10.958;2022-10-04T22:49:22;12.68;;;8.55;;
6497;SDS011;3282;48.358;10.958;2022-10-04T22:51:53;15.50;;;10.07;;
6497;SDS011;3282;48.358;10.958;2022-10-04T22:54:23;14.43;;;9.95;;
6497;SDS011;3282;48.358;10.958;2022-10-04T22:56:51;13.23;;;9.65;;
6497;SDS011;3282;48.358;10.958;2022-10-04T22:59:19;15.07;;;9.68;;
6497;SDS011;3282;48.358;10.958;2022-10-04T23:01:48;17.05;;;10.70;;
6497;SDS011;3282;48.358;10.958;2022-10-04T23:04:20;11.75;;;8.90;;
6497;SDS011;3282;48.358;10.958;2022-10-04T23:06:49;17.90;;;9.82;;
6497;SDS011;3282;48.358;10.958;2022-10-04T23:09:17;13.45;;;9.07;;
6497;SDS011;3282;48.358;10.958;2022-10-04T23:11:44;13.88;;;8.35;;
6497;SDS011;3282;48.358;10.958;2022-10-04T23:14:11;13.95;;;9.57;;
6497;SDS011;3282;48.358;10.958;2022-10-04T23:16:38;14.55;;;9.88;;
6497;SDS011;3282;48.358;10.958;2022-10-04T23:19:08;15.30;;;10.18;;
6497;SDS011;3282;48.358;10.958;2022-10-04T23:21:37;15.18;;;9.68;;
6497;SDS011;3282;48.358;10.958;2022-10-04T23:24:14;13.15;;;9.43;;
6497;SDS011;3282;48.358;10.958;2022-10-04T23:26:53;13.13;;;9.52;;
6497;SDS011;3282;48.358;10.958;2022-10-04T23:29:25;16.73;;;9.20;;
6497;SDS011;3282;48.358;10.958;2022-10-04T23:31:53;15.90;;;9.82;;
6497;SDS011;3282;48.358;10.958;2022-10-04T23:34:42;12.93;;;9.35;;
6497;SDS011;3282;48.358;10.958;2022-10-04T23:37:18;13.02;;;8.85;;
6497;SDS011;3282;48.358;10.958;2022-10-04T23:39:46;17.30;;;10.25;;
6497;SDS011;3282;48.358;10.958;2022-10-04T23:42:18;18.33;;;8.98;;
6497;SDS011;3282;48.358;10.958;2022-10-04T23:44:47;14.98;;;9.50;;
6497;SDS011;3282;48.358;10.958;2022-10-04T23:47:16;15.48;;;9.85;;
6497;SDS011;3282;48.358;10.958;2022-10-04T23:49:49;16.63;;;10.40;;
6497;SDS011;3282;48.358;10.958;2022-10-04T23:54:43;13.05;;;9.48;;
6497;SDS011;3282;48.358;10.958;2022-10-04T23:57:10;16.67;;;10.32;;
6497;SDS011;3282;48.358;10.958;2022-10-04T23:59:45;13.05;;;9.38;;
